Time;durP1;ratioP1;P1;durP2;ratioP2;P2;SDS_P1;SDS_P2;PMS_P1;PMS_P2;Temp;Humidity;BMP_temperature;BMP_pressure;BME280_temperature;BME280_humidity;BME280_pressure;Samples;Min_cycle;Max_cycle;Signal;HPM_P1;HPM_P2
2022/08/20 00:00:59;;;;;;;14.65;13.15;;;23.30;99.90;;;;;;5046190;28;20032;-68
2022/08/20 00:03:38;;;;;;;18.23;14.55;;;23.30;99.90;;;;;;5052178;28;20059;-69
2022/08/20 00:06:13;;;;;;;17.73;14.00;;;23.30;99.90;;;;;;5055955;28;20049;-69
2022/08/20 00:08:39;;;;;;;16.85;14.48;;;23.30;99.90;;;;;;5050796;28;20025;-69
2022/08/20 00:11:07;;;;;;;16.98;13.25;;;23.30;99.90;;;;;;5053025;28;20044;-68
2022/08/20 00:13:40;;;;;;;18.40;15.88;;;23.30;99.90;;;;;;5054915;28;20029;-68
2022/08/20 00:16:07;;;;;;;16.02;14.00;;;23.30;99.90;;;;;;5052639;28;20068;-68
2022/08/20 00:18:35;;;;;;;18.17;14.55;;;23.30;99.90;;;;;;5053539;28;20029;-68
2022/08/20 00:21:04;;;;;;;16.45;14.57;;;23.30;99.90;;;;;;5051557;28;20044;-67
2022/08/20 00:23:30;;;;;;;15.98;13.80;;;23.30;99.90;;;;;;5053389;28;20029;-67
2022/08/20 00:25:55;;;;;;;15.70;13.90;;;23.20;99.90;;;;;;5051778;28;20589;-68
2022/08/20 00:28:21;;;;;;;17.85;14.40;;;23.20;99.90;;;;;;5053967;28;20052;-68
2022/08/20 00:30:47;;;;;;;15.23;13.32;;;23.20;99.90;;;;;;5021471;28;20476;-68
2022/08/20 00:33:19;;;;;;;15.57;13.38;;;23.20;99.90;;;;;;5053177;28;20425;-69
2022/08/20 00:35:55;;;;;;;16.23;13.15;;;23.20;99.90;;;;;;5052317;28;20033;-68
2022/08/20 00:38:22;;;;;;;15.65;14.02;;;23.20;99.90;;;;;;5053802;28;20033;-68
2022/08/20 00:40:54;;;;;;;14.73;13.07;;;23.20;99.90;;;;;;5051543;28;20040;-68
2022/08/20 00:43:36;;;;;;;15.18;13.65;;;23.20;99.90;;;;;;5053086;28;20029;-68
2022/08/20 00:46:07;;;;;;;18.52;14.52;;;23.20;99.90;;;;;;5052425;28;20041;-68
2022/08/20 00:48:35;;;;;;;15.68;13.65;;;23.10;99.90;;;;;;5052612;28;20147;-68
2022/08/20 00:51:09;;;;;;;16.77;14.20;;;23.20;99.90;;;;;;5051095;28;20162;-68
2022/08/20 00:53:36;;;;;;;17.95;14.35;;;23.10;99.90;;;;;;5063505;28;20049;-68
2022/08/20 00:56:04;;;;;;;20.77;16.20;;;23.10;99.90;;;;;;5052231;28;20118;-68
2022/08/20 00:58:32;;;;;;;15.45;13.77;;;23.10;99.90;;;;;;5052774;28;20029;-68
2022/08/20 01:00:58;;;;;;;16.48;13.90;;;23.00;99.90;;;;;;5047503;28;20027;-68
2022/08/20 01:03:24;;;;;;;15.73;14.02;;;23.10;99.90;;;;;;5052438;28;20036;-68
2022/08/20 01:05:50;;;;;;;18.58;14.68;;;23.10;99.90;;;;;;5051949;28;20420;-68
2022/08/20 01:08:20;;;;;;;16.50;14.52;;;23.00;99.90;;;;;;5052084;28;20029;-68
2022/08/20 01:10:48;;;;;;;16.17;14.02;;;23.00;99.90;;;;;;5051566;28;20044;-68
2022/08/20 01:13:19;;;;;;;16.35;14.55;;;23.00;99.90;;;;;;5051732;28;20495;-68
2022/08/20 01:15:47;;;;;;;16.17;14.48;;;23.00;99.90;;;;;;5051972;28;20033;-68
2022/08/20 01:18:16;;;;;;;16.20;13.82;;;22.90;99.90;;;;;;5051667;28;20472;-67
2022/08/20 01:20:48;;;;;;;16.70;14.07;;;22.90;99.90;;;;;;5051985;28;20025;-68
2022/08/20 01:23:28;;;;;;;18.83;15.65;;;22.80;99.90;;;;;;5052172;28;20037;-67
2022/08/20 01:26:11;;;;;;;17.73;15.77;;;22.80;99.90;;;;;;5049996;28;20029;-68
2022/08/20 01:28:42;;;;;;;19.13;15.77;;;22.80;99.90;;;;;;5040216;28;20040;-68
2022/08/20 01:31:19;;;;;;;19.30;15.15;;;22.70;99.90;;;;;;5051148;28;20065;-68
2022/08/20 01:33:45;;;;;;;17.95;14.05;;;22.80;99.90;;;;;;5050092;28;20384;-68
2022/08/20 01:36:13;;;;;;;17.73;15.07;;;22.80;99.90;;;;;;5042937;28;20039;-69
2022/08/20 01:38:39;;;;;;;17.75;13.77;;;22.80;99.90;;;;;;5052295;28;20052;-68
2022/08/20 01:41:42;;;;;;;16.10;14.20;;;22.90;99.90;;;;;;5051511;28;20021;-68
2022/08/20 01:44:11;;;;;;;13.68;12.27;;;22.90;99.90;;;;;;5051569;28;20032;-68
2022/08/20 01:46:39;;;;;;;16.27;14.35;;;22.90;99.90;;;;;;5051123;28;20043;-68
2022/08/20 01:49:21;;;;;;;16.15;14.40;;;22.90;99.90;;;;;;5051173;28;20025;-68
2022/08/20 01:51:49;;;;;;;17.02;14.90;;;22.90;99.90;;;;;;5046047;28;20040;-68
2022/08/20 01:54:15;;;;;;;16.17;14.18;;;22.90;99.90;;;;;;5051545;28;20029;-68
2022/08/20 01:57:22;;;;;;;18.88;14.25;;;22.80;99.90;;;;;;5051038;28;20039;-68
2022/08/20 01:59:49;;;;;;;16.00;14.05;;;22.70;99.90;;;;;;5034926;28;20476;-68
2022/08/20 02:02:15;;;;;;;17.05;15.02;;;22.70;99.90;;;;;;5048101;28;20033;-68
2022/08/20 02:04:41;;;;;;;15.00;13.07;;;22.80;99.90;;;;;;5051834;28;20533;-68
2022/08/20 02:07:13;;;;;;;15.38;12.75;;;22.70;99.90;;;;;;5049402;28;20048;-68
2022/08/20 02:09:39;;;;;;;15.13;12.50;;;22.70;99.90;;;;;;5031863;28;20480;-69
2022/08/20 02:12:06;;;;;;;13.45;10.98;;;22.70;99.90;;;;;;5031841;28;20040;-68
2022/08/20 02:14:32;;;;;;;11.77;10.52;;;22.70;99.90;;;;;;5052156;28;20040;-68
2022/08/20 02:16:58;;;;;;;11.43;10.32;;;22.70;99.90;;;;;;5050112;28;20468;-66
2022/08/20 02:19:40;;;;;;;11.48;9.88;;;22.70;99.90;;;;;;5051115;28;20036;-66
2022/08/20 02:22:22;;;;;;;8.65;7.75;;;22.60;99.90;;;;;;5050259;28;20422;-66
2022/08/20 02:24:48;;;;;;;10.27;9.18;;;22.60;99.90;;;;;;5031934;28;20029;-67
2022/08/20 02:27:14;;;;;;;9.98;8.00;;;22.50;99.90;;;;;;5051078;28;20517;-67
2022/08/20 02:29:40;;;;;;;10.13;9.05;;;22.40;99.90;;;;;;5032607;28;20065;-67
2022/08/20 02:32:07;;;;;;;9.00;8.10;;;22.40;99.90;;;;;;5051125;28;20098;-67
2022/08/20 02:34:33;;;;;;;8.90;8.00;;;22.30;99.90;;;;;;5050409;28;20037;-68
2022/08/20 02:37:00;;;;;;;8.93;7.97;;;22.30;99.90;;;;;;5051048;28;20388;-68
2022/08/20 02:39:26;;;;;;;11.48;8.75;;;22.20;99.90;;;;;;5050448;28;20025;-68
2022/08/20 02:41:52;;;;;;;9.73;8.10;;;22.20;99.90;;;;;;5051234;28;20033;-68
2022/08/20 02:44:20;;;;;;;9.57;8.25;;;22.10;99.90;;;;;;5049519;28;20055;-68
2022/08/20 02:46:48;;;;;;;10.50;9.43;;;22.10;99.90;;;;;;5051311;28;20040;-68
2022/08/20 02:49:16;;;;;;;11.32;9.45;;;22.10;99.90;;;;;;5048469;28;20025;-68
2022/08/20 02:51:42;;;;;;;10.98;9.27;;;22.00;99.90;;;;;;5051376;28;20487;-68
2022/08/20 02:54:08;;;;;;;10.95;9.85;;;22.00;99.90;;;;;;5048515;28;20017;-68
2022/08/20 02:56:33;;;;;;;10.82;9.27;;;22.00;99.90;;;;;;5051170;28;20037;-68
2022/08/20 02:58:59;;;;;;;12.00;10.73;;;22.00;99.90;;;;;;5049400;28;20040;-68
2022/08/20 03:01:24;;;;;;;11.55;10.25;;;22.00;99.90;;;;;;5034838;28;20389;-68
2022/08/20 03:03:50;;;;;;;13.02;11.50;;;22.00;99.90;;;;;;5048124;28;20068;-68
2022/08/20 03:06:16;;;;;;;13.60;11.23;;;21.90;99.90;;;;;;5051397;28;20048;-68
2022/08/20 03:08:42;;;;;;;12.48;10.65;;;21.90;99.90;;;;;;5049328;28;20026;-68
2022/08/20 03:11:08;;;;;;;14.15;10.95;;;22.00;99.90;;;;;;5050652;28;20044;-68
2022/08/20 03:13:34;;;;;;;13.68;12.15;;;22.00;99.90;;;;;;5049899;28;20033;-69
2022/08/20 03:16:01;;;;;;;14.48;12.00;;;22.00;99.90;;;;;;5050202;28;20040;-69
2022/08/20 03:18:32;;;;;;;13.80;11.70;;;22.00;99.90;;;;;;5049477;28;20373;-68
2022/08/20 03:20:58;;;;;;;13.88;11.13;;;22.10;99.90;;;;;;5049429;28;20078;-68
2022/08/20 03:23:23;;;;;;;16.05;13.48;;;22.00;99.90;;;;;;5050128;28;20025;-68
2022/08/20 03:25:49;;;;;;;16.13;13.27;;;22.00;99.90;;;;;;5049455;28;20535;-68
2022/08/20 03:28:16;;;;;;;15.55;12.60;;;22.00;99.90;;;;;;5049996;28;20396;-68
2022/08/20 03:30:42;;;;;;;18.42;14.93;;;22.00;99.90;;;;;;5050134;28;20047;-68
2022/08/20 03:33:08;;;;;;;18.95;14.55;;;22.00;99.90;;;;;;5049323;28;20111;-68
2022/08/20 03:35:35;;;;;;;16.02;14.10;;;22.00;99.90;;;;;;5050507;28;20025;-68
2022/08/20 03:38:05;;;;;;;17.60;14.95;;;22.00;99.90;;;;;;5050284;28;20460;-69
2022/08/20 03:40:33;;;;;;;19.52;15.30;;;22.00;99.90;;;;;;5048731;28;20032;-68
2022/08/20 03:42:59;;;;;;;18.35;14.63;;;22.10;99.90;;;;;;5048565;28;20029;-67
2022/08/20 03:45:26;;;;;;;20.98;16.40;;;22.00;99.90;;;;;;5050282;28;20067;-67
2022/08/20 03:47:53;;;;;;;21.23;17.33;;;22.00;99.90;;;;;;5048968;28;20070;-68
2022/08/20 03:50:22;;;;;;;22.20;17.80;;;22.10;99.90;;;;;;5050138;28;20029;-68
2022/08/20 03:52:48;;;;;;;21.17;16.85;;;22.00;99.90;;;;;;5049024;28;20048;-68
2022/08/20 03:55:14;;;;;;;21.58;17.42;;;22.10;99.90;;;;;;5050968;28;20029;-69
2022/08/20 03:57:48;;;;;;;20.83;17.75;;;22.10;99.90;;;;;;5052567;28;20114;-69
2022/08/20 04:00:18;;;;;;;23.30;17.83;;;22.10;99.90;;;;;;5052510;28;20037;-69
2022/08/20 04:02:43;;;;;;;22.77;17.95;;;22.10;99.90;;;;;;5050794;28;20025;-69
2022/08/20 04:05:09;;;;;;;22.67;17.50;;;22.10;99.90;;;;;;5054455;28;20063;-69
2022/08/20 04:07:36;;;;;;;21.08;16.20;;;22.10;99.90;;;;;;5051508;28;20057;-68
2022/08/20 04:10:05;;;;;;;20.02;16.95;;;22.00;99.90;;;;;;5053754;28;20040;-68
2022/08/20 04:12:30;;;;;;;23.58;18.48;;;22.00;99.90;;;;;;5052693;28;20400;-68
2022/08/20 04:14:57;;;;;;;21.40;17.63;;;22.00;99.90;;;;;;5053200;28;20058;-69
2022/08/20 04:17:23;;;;;;;23.13;19.05;;;22.00;99.90;;;;;;5052246;28;20040;-69
2022/08/20 04:19:48;;;;;;;22.45;19.60;;;22.00;99.90;;;;;;5052970;28;20037;-69
2022/08/20 04:22:14;;;;;;;21.20;17.85;;;22.10;99.90;;;;;;5053108;28;20108;-68
2022/08/20 04:24:42;;;;;;;21.10;18.48;;;22.10;99.90;;;;;;5070237;28;20139;-67
2022/08/20 04:27:09;;;;;;;20.92;16.98;;;22.00;99.90;;;;;;5056996;28;20033;-67
2022/08/20 04:29:35;;;;;;;21.05;18.02;;;22.10;99.90;;;;;;5049565;28;20044;-67
2022/08/20 04:32:03;;;;;;;19.42;16.25;;;22.10;99.90;;;;;;5052509;28;20591;-67
2022/08/20 04:34:29;;;;;;;21.67;17.38;;;22.10;99.90;;;;;;5053627;28;20112;-67
2022/08/20 04:36:55;;;;;;;19.25;15.95;;;22.00;99.90;;;;;;5053411;28;20488;-67
2022/08/20 04:39:21;;;;;;;20.23;16.83;;;22.00;99.90;;;;;;5052635;28;20500;-67
2022/08/20 04:41:47;;;;;;;20.67;15.93;;;22.00;99.90;;;;;;5053711;28;20029;-67
2022/08/20 04:44:13;;;;;;;20.65;18.45;;;22.00;99.90;;;;;;5052250;28;20021;-67
2022/08/20 04:46:39;;;;;;;19.95;16.88;;;22.00;99.90;;;;;;5053046;28;20434;-67
2022/08/20 04:49:06;;;;;;;21.55;16.05;;;22.00;99.90;;;;;;5051943;28;20025;-67
2022/08/20 04:51:32;;;;;;;18.38;16.02;;;21.90;99.90;;;;;;5053124;28;20037;-67
2022/08/20 04:54:01;;;;;;;21.45;16.52;;;21.90;99.90;;;;;;5052921;28;20021;-67
2022/08/20 04:56:30;;;;;;;18.75;16.60;;;22.00;99.90;;;;;;5053643;28;20029;-67
2022/08/20 04:58:58;;;;;;;21.83;17.83;;;22.00;99.90;;;;;;5051540;28;20021;-67
2022/08/20 05:01:25;;;;;;;18.75;16.27;;;22.00;99.90;;;;;;5052184;28;20639;-67
2022/08/20 05:03:53;;;;;;;18.73;15.98;;;22.10;99.90;;;;;;5051714;28;20119;-67
2022/08/20 05:06:22;;;;;;;20.75;16.48;;;22.00;99.90;;;;;;5053017;28;20052;-67
2022/08/20 05:08:47;;;;;;;18.40;15.48;;;22.00;99.90;;;;;;5051489;28;20492;-67
2022/08/20 05:11:13;;;;;;;22.20;17.95;;;22.10;99.90;;;;;;5052511;28;20041;-68
2022/08/20 05:13:39;;;;;;;19.95;16.33;;;22.10;99.90;;;;;;5050290;28;20037;-67
2022/08/20 05:16:05;;;;;;;20.48;17.17;;;22.10;99.90;;;;;;5053202;28;20029;-67
2022/08/20 05:18:32;;;;;;;19.20;15.88;;;22.10;99.90;;;;;;5051915;28;20064;-67
2022/08/20 05:21:03;;;;;;;19.92;15.82;;;22.10;99.90;;;;;;5051418;28;20039;-67
2022/08/20 05:23:29;;;;;;;18.75;15.50;;;22.10;99.90;;;;;;5050825;28;20055;-67
2022/08/20 05:25:56;;;;;;;19.42;16.92;;;22.10;99.90;;;;;;5051290;28;20037;-67
2022/08/20 05:28:26;;;;;;;19.83;17.35;;;22.10;99.90;;;;;;5057167;28;20032;-67
2022/08/20 05:30:52;;;;;;;22.75;18.30;;;22.20;99.90;;;;;;5033712;28;20052;-68
2022/08/20 05:33:20;;;;;;;18.88;15.18;;;22.10;99.90;;;;;;5051795;28;20032;-68
2022/08/20 05:35:49;;;;;;;19.80;16.73;;;22.10;99.90;;;;;;5052391;28;20036;-68
2022/08/20 05:38:17;;;;;;;18.40;15.88;;;22.00;99.90;;;;;;5045858;28;20079;-67
2022/08/20 05:40:44;;;;;;;20.80;16.30;;;22.10;99.90;;;;;;5036902;28;20030;-67
2022/08/20 05:43:09;;;;;;;19.65;16.42;;;22.10;99.90;;;;;;5045941;28;20060;-69
2022/08/20 05:45:37;;;;;;;18.88;15.52;;;22.20;99.90;;;;;;5035645;28;20065;-69
2022/08/20 05:48:06;;;;;;;20.20;16.40;;;22.20;99.90;;;;;;5038243;28;20033;-70
2022/08/20 05:50:32;;;;;;;19.83;16.35;;;22.20;99.90;;;;;;5051761;28;20059;-70
2022/08/20 05:53:00;;;;;;;19.00;16.10;;;22.30;99.90;;;;;;5051408;28;20492;-70
2022/08/20 05:55:28;;;;;;;19.27;16.23;;;22.30;99.90;;;;;;5051878;28;20492;-70
2022/08/20 05:57:57;;;;;;;21.63;17.88;;;22.20;99.90;;;;;;5051354;28;20033;-70
2022/08/20 06:00:23;;;;;;;20.65;17.35;;;22.30;99.90;;;;;;5050424;28;20032;-70
2022/08/20 06:05:33;;;;;;;20.85;17.45;;;22.20;99.90;;;;;;5050412;28;20075;-69
2022/08/20 06:07:59;;;;;;;22.17;17.13;;;22.20;99.90;;;;;;5051186;28;20036;-69
2022/08/20 06:10:25;;;;;;;24.33;19.10;;;22.20;99.90;;;;;;5051378;28;20033;-69
2022/08/20 06:12:52;;;;;;;22.13;16.90;;;22.20;99.90;;;;;;5047842;28;20044;-69
2022/08/20 06:15:18;;;;;;;20.17;16.90;;;22.20;99.90;;;;;;5051600;28;20029;-70
2022/08/20 06:17:44;;;;;;;25.90;17.85;;;22.20;99.90;;;;;;5049002;28;20029;-69
2022/08/20 06:20:10;;;;;;;18.88;16.40;;;22.20;99.90;;;;;;5049220;28;20109;-69
2022/08/20 06:22:37;;;;;;;18.92;16.27;;;22.20;99.90;;;;;;5049985;28;20590;-69
2022/08/20 06:25:05;;;;;;;19.55;17.48;;;22.20;99.90;;;;;;5038441;28;20109;-69
2022/08/20 06:27:30;;;;;;;20.70;16.17;;;22.30;99.90;;;;;;5050533;28;20051;-69
2022/08/20 06:29:56;;;;;;;21.13;18.13;;;22.20;99.90;;;;;;5050093;28;20025;-69
2022/08/20 06:32:25;;;;;;;23.40;17.95;;;22.30;99.90;;;;;;5050461;28;20488;-70
2022/08/20 06:34:52;;;;;;;19.67;17.55;;;22.20;99.90;;;;;;5051271;28;20021;-70
2022/08/20 06:37:23;;;;;;;19.02;15.77;;;22.30;99.90;;;;;;5027881;28;20067;-70
2022/08/20 06:39:50;;;;;;;21.13;17.67;;;22.30;99.90;;;;;;5050398;28;20025;-71
2022/08/20 06:42:18;;;;;;;19.27;15.98;;;22.30;99.90;;;;;;5049774;28;20128;-71
2022/08/20 06:44:48;;;;;;;19.17;17.13;;;22.30;99.90;;;;;;5045142;28;20029;-71
2022/08/20 06:47:19;;;;;;;21.70;17.67;;;22.30;99.90;;;;;;5047041;28;20029;-71
2022/08/20 06:49:46;;;;;;;22.05;17.13;;;22.30;99.90;;;;;;5046833;28;20063;-70
2022/08/20 06:52:14;;;;;;;24.23;18.48;;;22.30;99.90;;;;;;5049021;28;20538;-71
2022/08/20 06:54:40;;;;;;;19.27;17.02;;;22.30;99.90;;;;;;5051030;28;20037;-71
2022/08/20 06:57:05;;;;;;;20.23;15.98;;;22.30;99.90;;;;;;5043927;28;20538;-70
2022/08/20 06:59:31;;;;;;;22.33;18.63;;;22.30;99.90;;;;;;5044675;28;20029;-71
2022/08/20 07:01:57;;;;;;;21.52;17.20;;;22.40;99.90;;;;;;5049314;28;20033;-71
2022/08/20 07:04:24;;;;;;;21.48;17.42;;;22.40;99.90;;;;;;5046161;28;20040;-73
2022/08/20 07:06:51;;;;;;;22.08;18.80;;;22.40;99.90;;;;;;5049225;28;20053;-71
2022/08/20 07:09:20;;;;;;;20.85;18.52;;;22.30;99.90;;;;;;5049496;28;20115;-70
2022/08/20 07:11:48;;;;;;;21.80;17.92;;;22.40;99.90;;;;;;5049300;28;20033;-70
2022/08/20 07:14:15;;;;;;;21.13;18.13;;;22.40;99.90;;;;;;5050243;28;20459;-71
2022/08/20 07:16:41;;;;;;;21.10;18.40;;;22.40;99.90;;;;;;5031601;28;20063;-70
2022/08/20 07:19:07;;;;;;;22.27;17.85;;;22.40;99.90;;;;;;5049668;28;20061;-70
2022/08/20 07:21:34;;;;;;;19.83;17.13;;;22.40;99.90;;;;;;5049042;28;20029;-70
2022/08/20 07:24:00;;;;;;;21.92;18.38;;;22.40;99.90;;;;;;5042522;28;20026;-71
2022/08/20 07:26:25;;;;;;;21.52;18.42;;;22.50;99.90;;;;;;5047967;28;20037;-71
2022/08/20 07:28:51;;;;;;;22.75;18.48;;;22.50;99.90;;;;;;5049957;28;20080;-71
2022/08/20 07:34:02;;;;;;;21.55;17.67;;;22.60;99.90;;;;;;5050907;28;20063;-70
2022/08/20 07:36:28;;;;;;;25.02;19.35;;;22.60;99.90;;;;;;5054008;28;20032;-69
2022/08/20 07:38:54;;;;;;;21.58;19.25;;;22.50;99.90;;;;;;5053775;28;20024;-69
2022/08/20 07:41:19;;;;;;;20.65;18.02;;;22.50;99.90;;;;;;5053128;28;20031;-69
2022/08/20 07:43:46;;;;;;;24.92;18.65;;;22.50;99.90;;;;;;5053078;28;20071;-69
2022/08/20 07:46:18;;;;;;;22.58;19.30;;;22.60;99.90;;;;;;5050542;28;20135;-69
2022/08/20 07:48:48;;;;;;;21.75;18.63;;;22.60;99.90;;;;;;5053531;28;20052;-69
2022/08/20 07:51:16;;;;;;;22.65;17.80;;;22.50;99.90;;;;;;5052116;28;20561;-70
2022/08/20 07:53:44;;;;;;;22.02;19.67;;;22.50;99.90;;;;;;5052428;28;20029;-69
2022/08/20 07:56:13;;;;;;;22.45;19.00;;;22.50;99.90;;;;;;5052221;28;20090;-69
2022/08/20 07:58:48;;;;;;;22.58;18.35;;;22.50;99.90;;;;;;5053547;28;20029;-69
2022/08/20 08:01:18;;;;;;;25.52;20.30;;;22.50;99.90;;;;;;5052877;28;20032;-69
2022/08/20 08:03:44;;;;;;;27.13;19.40;;;22.50;99.90;;;;;;5053086;28;20115;-69
2022/08/20 08:06:11;;;;;;;23.17;19.27;;;22.60;99.90;;;;;;5052542;28;20132;-69
2022/08/20 08:08:37;;;;;;;24.27;20.13;;;22.60;99.90;;;;;;5053282;28;20139;-69
2022/08/20 08:11:03;;;;;;;22.08;19.08;;;22.60;99.90;;;;;;5031624;28;20420;-69
2022/08/20 08:13:32;;;;;;;24.70;19.88;;;22.60;99.90;;;;;;5040209;28;20033;-69
2022/08/20 08:16:00;;;;;;;25.52;20.88;;;22.60;99.90;;;;;;5053607;28;20029;-70
2022/08/20 08:18:30;;;;;;;24.00;20.63;;;22.70;99.90;;;;;;5051579;28;20041;-69
2022/08/20 08:20:56;;;;;;;26.00;21.20;;;22.70;99.90;;;;;;5053026;28;20121;-69
2022/08/20 08:23:22;;;;;;;25.35;19.60;;;22.70;99.90;;;;;;5052247;28;20033;-70
2022/08/20 08:25:51;;;;;;;23.35;20.88;;;22.70;99.90;;;;;;5052163;28;20036;-69
2022/08/20 08:28:18;;;;;;;22.08;19.58;;;22.80;99.90;;;;;;5053043;28;20385;-70
2022/08/20 08:30:45;;;;;;;24.42;19.17;;;22.80;99.90;;;;;;5052653;28;20028;-69
2022/08/20 08:33:27;;;;;;;26.65;21.63;;;22.90;99.90;;;;;;5052279;28;20029;-70
2022/08/20 08:35:54;;;;;;;24.05;20.88;;;22.80;99.90;;;;;;5045955;28;20030;-69
2022/08/20 08:38:22;;;;;;;28.88;21.45;;;22.90;99.90;;;;;;5047526;28;20422;-69
2022/08/20 08:40:50;;;;;;;27.70;21.08;;;22.90;99.90;;;;;;5051354;28;20033;-69
2022/08/20 08:43:20;;;;;;;27.45;22.13;;;22.90;99.90;;;;;;5042265;28;20028;-69
2022/08/20 08:45:55;;;;;;;28.67;23.77;;;22.80;99.90;;;;;;5051489;28;20033;-69
2022/08/20 08:48:21;;;;;;;;;;;22.80;99.90;;;;;;5049303;28;20457;-69
2022/08/20 08:50:50;;;;;;;27.13;21.48;;;22.80;99.90;;;;;;5051313;28;19921;-68
2022/08/20 08:53:26;;;;;;;27.70;22.30;;;22.80;99.90;;;;;;5052700;28;20449;-68
2022/08/20 08:55:53;;;;;;;25.85;21.88;;;22.70;99.90;;;;;;5015212;28;20153;-67
2022/08/20 08:58:19;;;;;;;31.05;23.33;;;22.80;99.90;;;;;;5051799;28;20548;-69
2022/08/20 09:00:46;;;;;;;28.30;23.05;;;22.80;99.90;;;;;;5050726;28;20109;-69
2022/08/20 09:03:21;;;;;;;27.02;22.60;;;22.80;99.90;;;;;;5052598;28;20037;-70
2022/08/20 09:05:58;;;;;;;28.63;22.52;;;22.80;99.90;;;;;;5037978;28;20041;-68
2022/08/20 09:08:29;;;;;;;27.08;21.50;;;22.80;99.90;;;;;;5033326;28;20548;-67
2022/08/20 09:11:01;;;;;;;28.83;24.45;;;22.80;99.90;;;;;;5033863;28;20412;-67
2022/08/20 09:13:27;;;;;;;27.95;21.17;;;22.90;99.90;;;;;;5035730;28;20583;-67
2022/08/20 09:15:55;;;;;;;28.55;23.98;;;23.00;99.90;;;;;;5033738;28;20116;-69
2022/08/20 09:18:21;;;;;;;28.67;23.60;;;23.00;99.90;;;;;;5043177;28;20033;-69
2022/08/20 09:20:47;;;;;;;25.85;22.20;;;23.10;99.90;;;;;;5031358;28;20037;-68
2022/08/20 09:23:12;;;;;;;25.20;21.58;;;23.10;99.90;;;;;;5041272;28;20056;-69
2022/08/20 09:25:38;;;;;;;29.63;24.52;;;23.20;99.90;;;;;;5031257;28;20473;-68
2022/08/20 09:28:03;;;;;;;25.52;22.38;;;23.30;99.90;;;;;;5032126;28;20271;-68
2022/08/20 09:30:29;;;;;;;23.30;19.85;;;23.30;99.90;;;;;;5016774;28;20033;-67
2022/08/20 09:32:58;;;;;;;25.23;19.02;;;23.40;99.90;;;;;;5038360;28;20021;-67
2022/08/20 09:35:24;;;;;;;28.48;22.70;;;23.50;99.90;;;;;;5029506;28;20029;-66
2022/08/20 09:37:51;;;;;;;26.80;21.20;;;23.50;99.90;;;;;;5032475;28;20113;-67
2022/08/20 09:40:17;;;;;;;23.65;19.85;;;23.50;99.90;;;;;;5036397;28;20083;-67
2022/08/20 09:42:43;;;;;;;26.88;23.58;;;23.50;99.90;;;;;;5037894;28;20036;-67
2022/08/20 09:45:10;;;;;;;24.67;20.30;;;23.60;99.90;;;;;;5044150;28;20112;-67
2022/08/20 09:47:36;;;;;;;24.13;19.77;;;23.60;99.90;;;;;;5031574;28;20033;-67
2022/08/20 09:50:03;;;;;;;27.20;20.95;;;23.60;99.90;;;;;;5033874;28;20205;-65
2022/08/20 09:52:32;;;;;;;27.60;21.83;;;23.60;99.90;;;;;;5050111;28;20021;-66
2022/08/20 09:55:20;;;;;;;27.90;22.77;;;23.60;99.90;;;;;;5029541;28;20351;-66
2022/08/20 09:57:47;;;;;;;25.17;19.48;;;23.60;99.90;;;;;;5017825;28;20121;-65
2022/08/20 10:00:14;;;;;;;23.15;19.83;;;23.60;99.90;;;;;;5047152;28;20033;-66
2022/08/20 10:02:40;;;;;;;21.92;19.48;;;23.60;99.90;;;;;;5032899;28;20083;-65
2022/08/20 10:05:06;;;;;;;23.08;20.58;;;23.60;99.90;;;;;;5032991;28;20064;-65
2022/08/20 10:07:33;;;;;;;22.85;19.65;;;23.60;99.90;;;;;;5041846;28;20033;-65
2022/08/20 10:09:59;;;;;;;20.85;18.08;;;23.60;99.90;;;;;;5029503;28;20049;-66
2022/08/20 10:12:25;;;;;;;24.33;20.15;;;23.60;99.90;;;;;;5032558;28;20072;-65
2022/08/20 10:14:51;;;;;;;20.80;18.42;;;23.70;99.90;;;;;;5031525;28;20472;-66
2022/08/20 10:17:17;;;;;;;22.05;19.35;;;23.70;99.90;;;;;;5031505;28;20049;-67
2022/08/20 10:19:42;;;;;;;23.75;20.83;;;23.70;99.90;;;;;;5014808;28;20440;-66
2022/08/20 10:22:08;;;;;;;22.27;19.15;;;23.70;99.90;;;;;;5030772;28;20052;-66
2022/08/20 10:24:34;;;;;;;20.20;16.80;;;23.80;99.90;;;;;;5029562;28;20025;-66
2022/08/20 10:27:00;;;;;;;20.40;18.10;;;23.90;99.90;;;;;;5030995;28;20029;-66
2022/08/20 10:29:28;;;;;;;20.90;18.30;;;23.90;99.90;;;;;;5030826;28;20025;-66
2022/08/20 10:31:55;;;;;;;20.52;17.90;;;24.00;99.90;;;;;;5034216;28;20037;-66
2022/08/20 10:34:22;;;;;;;20.27;17.38;;;24.00;99.90;;;;;;5028669;28;20036;-65
2022/08/20 10:36:48;;;;;;;20.52;17.00;;;24.00;99.90;;;;;;5031241;28;20036;-65
2022/08/20 10:39:15;;;;;;;22.83;17.05;;;24.10;99.90;;;;;;5030098;28;20025;-65
2022/08/20 10:41:41;;;;;;;19.98;15.38;;;24.20;99.90;;;;;;5032330;28;20025;-65
2022/08/20 10:44:07;;;;;;;18.45;15.85;;;24.20;99.90;;;;;;5039385;28;20084;-64
2022/08/20 10:46:33;;;;;;;16.77;13.43;;;24.20;99.80;;;;;;5030933;28;20022;-64
2022/08/20 10:48:59;;;;;;;16.88;14.48;;;24.20;99.90;;;;;;5030980;28;20029;-65
2022/08/20 10:51:25;;;;;;;16.58;13.85;;;24.30;99.60;;;;;;5031547;28;20062;-64
2022/08/20 10:53:50;;;;;;;16.90;12.90;;;24.30;99.50;;;;;;5045025;28;20393;-64
2022/08/20 10:56:16;;;;;;;14.30;11.38;;;24.40;99.20;;;;;;5051806;28;20025;-66
2022/08/20 10:58:42;;;;;;;14.80;12.60;;;24.50;99.30;;;;;;5020980;28;20061;-65
2022/08/20 11:01:08;;;;;;;15.13;12.60;;;24.50;98.50;;;;;;5033232;28;20036;-65
2022/08/20 11:03:34;;;;;;;14.60;12.77;;;24.50;98.30;;;;;;5030732;28;20084;-65
2022/08/20 11:06:00;;;;;;;14.38;12.20;;;24.50;98.20;;;;;;5032266;28;20063;-66
2022/08/20 11:08:26;;;;;;;14.02;12.57;;;24.50;98.20;;;;;;5044946;28;20119;-65
2022/08/20 11:10:52;;;;;;;14.63;12.82;;;24.60;98.30;;;;;;5040031;28;20467;-65
2022/08/20 11:13:17;;;;;;;15.43;12.05;;;24.60;98.30;;;;;;5035412;28;20030;-65
2022/08/20 11:15:44;;;;;;;13.80;11.32;;;24.60;98.40;;;;;;5033456;28;20400;-65
2022/08/20 11:18:10;;;;;;;12.57;11.13;;;24.70;98.10;;;;;;5028971;28;20120;-66
2022/08/20 11:20:36;;;;;;;12.65;10.98;;;24.70;98.30;;;;;;5030765;28;20451;-65
2022/08/20 11:23:01;;;;;;;14.43;11.50;;;24.80;98.40;;;;;;5034339;28;20029;-65
2022/08/20 11:25:27;;;;;;;13.25;10.60;;;24.90;98.40;;;;;;5034187;28;20492;-65
2022/08/20 11:27:54;;;;;;;13.00;10.40;;;24.90;98.40;;;;;;5034674;28;20448;-65
2022/08/20 11:30:32;;;;;;;12.18;10.18;;;25.00;98.00;;;;;;5035154;28;20038;-65
2022/08/20 11:32:59;;;;;;;11.90;10.38;;;24.90;97.50;;;;;;5040883;28;20053;-66
2022/08/20 11:35:27;;;;;;;10.77;8.77;;;24.90;97.40;;;;;;5034879;28;20025;-66
2022/08/20 11:37:55;;;;;;;13.40;8.48;;;24.90;97.40;;;;;;5045775;28;20021;-65
2022/08/20 11:40:22;;;;;;;10.05;8.63;;;24.90;97.40;;;;;;5047582;28;20030;-65
2022/08/20 11:42:47;;;;;;;11.52;8.80;;;25.00;97.60;;;;;;5049548;28;20025;-65
2022/08/20 11:45:14;;;;;;;10.07;8.27;;;25.00;97.60;;;;;;5044983;28;20043;-65
2022/08/20 11:47:40;;;;;;;9.43;8.50;;;25.10;97.00;;;;;;5045666;28;20040;-66
2022/08/20 11:50:10;;;;;;;8.73;7.80;;;25.10;96.50;;;;;;5040644;28;20049;-65
2022/08/20 11:52:36;;;;;;;9.73;7.53;;;25.00;96.70;;;;;;5031116;28;20049;-66
2022/08/20 11:55:02;;;;;;;9.80;7.63;;;25.10;96.40;;;;;;5038901;28;20530;-66
2022/08/20 11:57:33;;;;;;;7.97;7.18;;;25.00;96.40;;;;;;5037330;28;20048;-66
2022/08/20 12:00:01;;;;;;;8.10;7.10;;;25.00;95.60;;;;;;5055762;28;20017;-67
2022/08/20 12:02:27;;;;;;;8.55;6.30;;;24.90;95.50;;;;;;5039148;28;20022;-66
2022/08/20 12:04:53;;;;;;;10.32;7.03;;;24.90;95.90;;;;;;5038089;28;20029;-66
2022/08/20 12:07:23;;;;;;;9.23;6.38;;;24.90;95.40;;;;;;5032518;28;20136;-65
2022/08/20 12:09:48;;;;;;;9.82;7.38;;;24.90;95.70;;;;;;5034533;28;20067;-65
2022/08/20 12:12:16;;;;;;;8.90;7.90;;;24.90;95.40;;;;;;5010192;28;20489;-65
2022/08/20 12:14:42;;;;;;;8.65;7.13;;;24.80;95.50;;;;;;5041665;28;20037;-66
2022/08/20 12:17:10;;;;;;;8.63;7.55;;;24.80;95.80;;;;;;5032614;28;20021;-66
2022/08/20 12:19:38;;;;;;;9.45;7.78;;;24.80;95.70;;;;;;5033998;28;20083;-66
2022/08/20 12:22:03;;;;;;;9.85;6.93;;;24.80;95.50;;;;;;5033373;28;20475;-66
2022/08/20 12:24:29;;;;;;;11.25;7.93;;;24.70;95.60;;;;;;5034114;28;20033;-66
2022/08/20 12:26:55;;;;;;;8.30;6.45;;;24.70;95.70;;;;;;5034202;28;20021;-66
2022/08/20 12:29:20;;;;;;;7.15;6.45;;;24.70;95.80;;;;;;5035187;28;20515;-65
2022/08/20 12:31:46;;;;;;;6.70;5.97;;;24.70;95.60;;;;;;5033679;28;20551;-66
2022/08/20 12:34:12;;;;;;;7.10;6.40;;;24.80;95.60;;;;;;5037451;28;20109;-66
2022/08/20 12:36:37;;;;;;;9.20;6.88;;;24.70;95.50;;;;;;5033975;28;20511;-65
2022/08/20 12:39:03;;;;;;;8.82;6.63;;;24.70;95.50;;;;;;5049232;28;20021;-66